createdAt,value
2022-10-12T00:00:40.445Z,100.00
2022-10-12T00:03:08.405Z,100.00
2022-10-12T00:05:36.389Z,100.00
2022-10-12T00:08:04.322Z,100.00
2022-10-12T00:10:32.283Z,100.00
2022-10-12T00:13:00.257Z,100.00
2022-10-12T00:15:28.284Z,100.00
2022-10-12T00:17:57.626Z,100.00
2022-10-12T00:20:25.606Z,100.00
2022-10-12T00:22:53.559Z,100.00
2022-10-12T00:25:21.508Z,100.00
2022-10-12T00:27:49.455Z,100.00
2022-10-12T00:30:17.566Z,100.00
2022-10-12T00:32:45.824Z,100.00
2022-10-12T00:35:15.331Z,100.00
2022-10-12T00:37:43.275Z,100.00
2022-10-12T00:40:12.461Z,100.00
2022-10-12T00:42:40.409Z,100.00
2022-10-12T00:45:10.553Z,100.00
2022-10-12T00:47:39.656Z,100.00
2022-10-12T00:50:10.951Z,100.00
2022-10-12T00:52:41.880Z,100.00
2022-10-12T00:55:10.265Z,100.00
2022-10-12T00:57:40.995Z,100.00
2022-10-12T01:00:12.048Z,100.00
2022-10-12T01:02:40.329Z,100.00
2022-10-12T01:05:08.661Z,100.00
2022-10-12T01:07:36.965Z,100.00
2022-10-12T01:10:07.449Z,100.00
2022-10-12T01:12:35.425Z,100.00
2022-10-12T01:15:03.389Z,100.00
2022-10-12T01:17:36.515Z,100.00
2022-10-12T01:20:29.982Z,100.00
2022-10-12T01:23:05.966Z,100.00
2022-10-12T01:25:43.087Z,100.00
2022-10-12T01:28:14.085Z,100.00
2022-10-12T01:30:44.173Z,100.00
2022-10-12T01:33:30.129Z,100.00
2022-10-12T01:36:01.358Z,100.00
2022-10-12T01:38:44.199Z,100.00
2022-10-12T01:41:14.610Z,100.00
2022-10-12T01:43:43.377Z,100.00
2022-10-12T01:46:54.104Z,100.00
2022-10-12T01:49:25.931Z,100.00
2022-10-12T01:52:17.223Z,100.00
2022-10-12T01:55:03.716Z,100.00
2022-10-12T01:57:34.513Z,100.00
2022-10-12T02:00:05.072Z,100.00
2022-10-12T02:02:36.911Z,100.00
2022-10-12T02:05:08.178Z,100.00
2022-10-12T02:07:40.755Z,100.00
2022-10-12T02:10:10.933Z,100.00
2022-10-12T02:12:38.850Z,100.00
2022-10-12T02:15:07.654Z,100.00
2022-10-12T02:17:35.797Z,100.00
2022-10-12T02:20:03.892Z,100.00
2022-10-12T02:22:35.725Z,100.00
2022-10-12T02:25:05.190Z,100.00
2022-10-12T02:27:33.254Z,100.00
2022-10-12T02:30:01.232Z,100.00
2022-10-12T02:32:29.801Z,100.00
2022-10-12T02:34:59.400Z,100.00
2022-10-12T02:37:33.545Z,100.00
2022-10-12T02:40:04.899Z,100.00
2022-10-12T02:42:46.537Z,100.00
2022-10-12T02:45:22.551Z,100.00
2022-10-12T02:47:50.521Z,100.00
2022-10-12T02:50:18.659Z,100.00
2022-10-12T02:52:47.987Z,100.00
2022-10-12T02:55:16.062Z,100.00
2022-10-12T02:57:43.993Z,100.00
2022-10-12T03:00:13.145Z,100.00
2022-10-12T03:02:41.101Z,100.00
2022-10-12T03:05:09.386Z,100.00
2022-10-12T03:07:37.586Z,100.00
2022-10-12T03:10:08.068Z,100.00
2022-10-12T03:12:36.044Z,100.00
2022-10-12T03:15:04.009Z,100.00
2022-10-12T03:17:31.985Z,100.00
2022-10-12T03:19:59.890Z,100.00
2022-10-12T03:22:27.897Z,100.00
2022-10-12T03:24:55.839Z,100.00
2022-10-12T03:27:25.303Z,100.00
2022-10-12T03:29:53.261Z,100.00
2022-10-12T03:32:21.559Z,100.00
2022-10-12T03:34:49.512Z,100.00
2022-10-12T03:37:17.535Z,100.00
2022-10-12T03:39:46.257Z,100.00
2022-10-12T03:42:14.213Z,100.00
2022-10-12T03:44:43.537Z,100.00
2022-10-12T03:47:11.525Z,100.00
2022-10-12T03:49:39.493Z,100.00
2022-10-12T03:52:07.484Z,100.00
2022-10-12T03:54:35.434Z,100.00
2022-10-12T03:57:03.463Z,100.00
2022-10-12T03:59:31.443Z,100.00
2022-10-12T04:02:00.829Z,100.00
2022-10-12T04:04:28.811Z,100.00
2022-10-12T04:06:56.772Z,100.00
2022-10-12T04:09:24.956Z,100.00
2022-10-12T04:11:52.992Z,100.00
2022-10-12T04:14:20.976Z,100.00
2022-10-12T04:16:48.943Z,100.00
2022-10-12T04:19:18.283Z,100.00
2022-10-12T04:21:46.249Z,100.00
2022-10-12T04:24:14.223Z,100.00
2022-10-12T04:26:42.177Z,100.00
2022-10-12T04:29:10.145Z,100.00
2022-10-12T04:31:38.101Z,100.00
2022-10-12T04:34:06.063Z,100.00
2022-10-12T04:36:35.667Z,100.00
2022-10-12T04:39:03.850Z,100.00
2022-10-12T04:41:32.332Z,100.00
2022-10-12T04:44:00.349Z,100.00
2022-10-12T04:46:28.356Z,100.00
2022-10-12T04:48:56.404Z,100.00
2022-10-12T04:51:24.835Z,100.00
2022-10-12T04:53:54.189Z,100.00
2022-10-12T04:56:22.138Z,100.00
2022-10-12T04:58:50.078Z,100.00
2022-10-12T05:01:18.080Z,100.00
2022-10-12T05:03:46.432Z,100.00
2022-10-12T05:06:14.448Z,100.00
2022-10-12T05:08:42.429Z,100.00
2022-10-12T05:11:11.776Z,100.00
2022-10-12T05:13:39.750Z,100.00
2022-10-12T05:16:08.304Z,100.00
2022-10-12T05:18:36.295Z,100.00
2022-10-12T05:21:04.648Z,100.00
2022-10-12T05:23:32.842Z,100.00
2022-10-12T05:26:00.873Z,100.00
2022-10-12T05:28:30.235Z,100.00
2022-10-12T05:30:58.192Z,100.00
2022-10-12T05:33:26.164Z,100.00
2022-10-12T05:35:56.553Z,100.00
2022-10-12T05:38:24.851Z,100.00
2022-10-12T05:40:55.354Z,100.00
2022-10-12T05:43:27.317Z,100.00
2022-10-12T05:45:56.652Z,100.00
2022-10-12T05:48:25.240Z,100.00
2022-10-12T05:50:53.453Z,100.00
2022-10-12T05:53:21.469Z,100.00
2022-10-12T05:55:56.050Z,100.00
2022-10-12T05:58:24.149Z,100.00
2022-10-12T06:00:52.128Z,100.00
2022-10-12T06:03:25.775Z,100.00
2022-10-12T06:05:54.329Z,100.00
2022-10-12T06:08:22.266Z,100.00
2022-10-12T06:10:51.809Z,100.00
2022-10-12T06:13:19.937Z,100.00
2022-10-12T06:15:48.056Z,100.00
2022-10-12T06:18:16.222Z,100.00
2022-10-12T06:20:49.283Z,100.00
2022-10-12T06:23:17.481Z,100.00
2022-10-12T06:25:46.911Z,100.00
2022-10-12T06:28:14.978Z,100.00
2022-10-12T06:30:43.017Z,100.00
2022-10-12T06:33:11.092Z,100.00
2022-10-12T06:35:39.189Z,100.00
2022-10-12T06:38:08.803Z,100.00
2022-10-12T06:40:36.815Z,100.00
2022-10-12T06:43:04.937Z,100.00
2022-10-12T06:45:32.927Z,100.00
2022-10-12T06:48:01.043Z,100.00
2022-10-12T06:50:29.011Z,100.00
2022-10-12T06:52:57.025Z,100.00
2022-10-12T06:55:26.346Z,100.00
2022-10-12T06:57:54.299Z,100.00
2022-10-12T07:00:22.656Z,100.00
2022-10-12T07:02:51.237Z,100.00
2022-10-12T07:05:19.317Z,100.00
2022-10-12T07:07:47.373Z,100.00
2022-10-12T07:10:15.514Z,100.00
2022-10-12T07:12:44.870Z,100.00
2022-10-12T07:15:12.859Z,100.00
2022-10-12T07:17:41.157Z,100.00
2022-10-12T07:20:09.748Z,100.00
2022-10-12T07:22:37.763Z,100.00
2022-10-12T07:25:06.520Z,100.00
2022-10-12T07:27:34.487Z,100.00
2022-10-12T07:30:03.903Z,100.00
2022-10-12T07:32:31.862Z,100.00
2022-10-12T07:34:59.844Z,100.00
2022-10-12T07:37:27.832Z,100.00
2022-10-12T07:39:57.686Z,100.00
2022-10-12T07:42:26.333Z,100.00
2022-10-12T07:44:54.342Z,100.00
2022-10-12T07:47:23.780Z,100.00
2022-10-12T07:49:51.852Z,100.00
2022-10-12T07:52:19.880Z,100.00
2022-10-12T07:54:47.903Z,100.00
2022-10-12T07:57:15.887Z,100.00
2022-10-12T07:59:43.900Z,100.00
2022-10-12T08:02:12.349Z,100.00
2022-10-12T08:04:41.822Z,100.00
2022-10-12T08:07:09.839Z,100.00
2022-10-12T08:09:37.875Z,100.00
2022-10-12T08:12:06.193Z,100.00
2022-10-12T08:14:34.189Z,100.00
2022-10-12T08:17:02.146Z,100.00
2022-10-12T08:19:35.112Z,100.00
2022-10-12T08:22:04.753Z,100.00
2022-10-12T08:24:32.823Z,100.00
2022-10-12T08:27:01.697Z,100.00
2022-10-12T08:29:29.752Z,100.00
2022-10-12T08:31:57.790Z,100.00
2022-10-12T08:34:26.096Z,100.00
2022-10-12T08:36:54.113Z,96.81
2022-10-12T08:39:23.635Z,96.64
2022-10-12T08:41:55.244Z,94.30
2022-10-12T08:44:42.815Z,93.42
2022-10-12T08:47:13.003Z,90.38
2022-10-12T08:49:45.133Z,90.06
2022-10-12T08:52:23.936Z,89.16
2022-10-12T08:54:53.344Z,87.32
2022-10-12T08:57:21.320Z,86.31
2022-10-12T08:59:49.382Z,85.88
2022-10-12T09:02:36.821Z,85.14
2022-10-12T09:05:06.901Z,85.98
2022-10-12T09:07:36.565Z,85.13
2022-10-12T09:10:11.510Z,84.59
2022-10-12T09:12:45.099Z,82.00
2022-10-12T09:15:14.596Z,80.88
2022-10-12T09:17:43.167Z,80.71
2022-10-12T09:20:22.405Z,82.54
2022-10-12T09:22:51.788Z,82.02
2022-10-12T09:25:23.718Z,80.66
2022-10-12T09:27:51.933Z,78.25
2022-10-12T09:30:20.544Z,77.92
2022-10-12T09:33:10.086Z,76.56
2022-10-12T09:35:38.082Z,77.16
2022-10-12T09:38:06.069Z,77.23
2022-10-12T09:40:35.429Z,74.74
2022-10-12T09:43:04.113Z,75.03
2022-10-12T09:45:33.175Z,73.17
2022-10-12T09:48:18.833Z,73.07
2022-10-12T09:50:49.927Z,72.40
2022-10-12T09:53:26.859Z,71.35
2022-10-12T09:56:01.840Z,70.41
2022-10-12T09:58:30.234Z,69.38
2022-10-12T10:01:28.520Z,68.68
2022-10-12T10:04:17.758Z,70.40
2022-10-12T10:06:46.696Z,69.70
2022-10-12T10:09:28.686Z,67.37
2022-10-12T10:11:58.138Z,68.52
2022-10-12T10:14:26.105Z,67.92
2022-10-12T10:16:54.854Z,67.33
2022-10-12T10:19:25.047Z,66.06
2022-10-12T10:21:53.116Z,66.26
2022-10-12T10:24:26.168Z,67.19
2022-10-12T10:26:57.462Z,64.10
2022-10-12T10:29:32.028Z,63.33
2022-10-12T10:32:24.218Z,62.75
2022-10-12T10:35:02.941Z,64.10
2022-10-12T10:37:31.236Z,62.27
2022-10-12T10:39:59.261Z,62.26
2022-10-12T10:42:30.258Z,65.53
2022-10-12T10:44:59.554Z,66.14
2022-10-12T10:47:27.528Z,64.41
2022-10-12T10:49:57.301Z,66.94
2022-10-12T10:52:26.033Z,64.59
2022-10-12T10:55:07.856Z,62.21
2022-10-12T10:57:37.236Z,63.39
2022-10-12T11:00:36.867Z,62.37
2022-10-12T11:02:56.387Z,61.87
2022-10-12T11:05:26.550Z,60.50
2022-10-12T11:07:55.193Z,60.56
2022-10-12T11:10:26.389Z,62.30
2022-10-12T11:12:58.536Z,61.04
2022-10-12T11:15:28.607Z,63.71
2022-10-12T11:17:59.984Z,62.70
2022-10-12T11:20:35.649Z,63.29
2022-10-12T11:23:05.388Z,62.44
2022-10-12T11:25:34.995Z,62.06
2022-10-12T11:28:04.510Z,60.78
2022-10-12T11:30:36.833Z,61.72
2022-10-12T11:33:06.587Z,61.39
2022-10-12T11:35:36.133Z,60.31
2022-10-12T11:38:05.070Z,64.44
2022-10-12T11:40:56.015Z,66.27
2022-10-12T11:43:26.778Z,64.43
2022-10-12T11:45:55.843Z,64.83
2022-10-12T11:48:27.159Z,65.43
2022-10-12T11:50:57.950Z,63.56
2022-10-12T11:53:32.489Z,59.14
2022-10-12T11:56:06.232Z,59.84
2022-10-12T11:58:59.506Z,54.83
2022-10-12T12:01:30.797Z,55.94
2022-10-12T12:04:41.032Z,58.67
2022-10-12T12:07:41.372Z,60.89
2022-10-12T12:10:46.694Z,56.89
2022-10-12T12:13:23.179Z,58.30
2022-10-12T12:16:31.962Z,56.80
2022-10-12T12:19:41.692Z,55.96
2022-10-12T12:22:18.300Z,56.62
2022-10-12T12:24:56.668Z,50.37
2022-10-12T12:27:29.233Z,50.37
2022-10-12T12:29:57.678Z,48.45
2022-10-12T12:32:27.033Z,50.60
2022-10-12T12:35:00.758Z,53.65
2022-10-12T12:37:31.181Z,51.28
2022-10-12T12:39:59.672Z,51.00
2022-10-12T12:42:32.177Z,50.98
2022-10-12T12:45:01.860Z,52.77
2022-10-12T12:47:46.450Z,52.38
2022-10-12T12:50:35.570Z,49.71
2022-10-12T12:53:06.787Z,46.96
2022-10-12T12:55:42.075Z,47.38
2022-10-12T12:58:37.844Z,44.85
2022-10-12T13:01:19.024Z,44.95
2022-10-12T13:03:56.572Z,46.36
2022-10-12T13:06:46.594Z,46.72
2022-10-12T13:09:29.979Z,46.60
2022-10-12T13:12:08.637Z,44.65
2022-10-12T13:15:00.463Z,46.74
2022-10-12T13:17:38.336Z,44.97
2022-10-12T13:20:11.461Z,45.61
2022-10-12T13:22:40.821Z,45.17
2022-10-12T13:25:09.882Z,41.88
2022-10-12T13:27:40.388Z,42.02
2022-10-12T13:30:14.470Z,39.66
2022-10-12T13:32:46.009Z,39.61
2022-10-12T13:35:16.341Z,39.71
2022-10-12T13:37:45.673Z,39.08
2022-10-12T13:40:29.886Z,40.41
2022-10-12T13:42:57.807Z,39.94
2022-10-12T13:45:25.761Z,40.49
2022-10-12T13:47:53.709Z,39.76
2022-10-12T13:50:22.123Z,38.15
2022-10-12T13:52:55.004Z,38.03
2022-10-12T13:55:26.220Z,38.11
2022-10-12T13:57:54.181Z,38.87
2022-10-12T14:00:25.059Z,39.78
2022-10-12T14:02:56.308Z,39.50
2022-10-12T14:05:25.169Z,39.79
2022-10-12T14:07:55.131Z,40.16
2022-10-12T14:10:24.674Z,40.20
2022-10-12T14:12:53.997Z,42.02
2022-10-12T14:15:22.184Z,40.37
2022-10-12T14:17:52.454Z,40.88
2022-10-12T14:20:29.088Z,41.64
2022-10-12T14:22:58.549Z,42.34
2022-10-12T14:25:27.749Z,44.56
2022-10-12T14:27:56.281Z,43.66
2022-10-12T14:30:24.968Z,46.53
2022-10-12T14:32:56.143Z,48.28
2022-10-12T14:35:28.349Z,48.78
2022-10-12T14:37:58.028Z,47.89
2022-10-12T14:40:34.551Z,50.56
2022-10-12T14:43:04.858Z,49.33
2022-10-12T14:45:33.271Z,49.29
2022-10-12T14:48:01.557Z,53.39
2022-10-12T14:50:30.712Z,52.31
2022-10-12T14:53:01.064Z,57.42
2022-10-12T14:55:29.814Z,54.83
2022-10-12T14:57:57.806Z,53.86
2022-10-12T15:00:27.492Z,54.57
2022-10-12T15:02:55.476Z,59.55
2022-10-12T15:05:24.549Z,60.57
2022-10-12T15:07:52.690Z,62.57
2022-10-12T15:10:22.952Z,64.14
2022-10-12T15:12:51.062Z,65.47
2022-10-12T15:15:28.940Z,67.19
2022-10-12T15:17:57.288Z,67.53
2022-10-12T15:20:25.254Z,69.80
2022-10-12T15:22:53.270Z,70.13
2022-10-12T15:25:24.094Z,71.08
2022-10-12T15:27:52.118Z,68.37
2022-10-12T15:30:20.320Z,67.97
2022-10-12T15:32:48.886Z,71.43
2022-10-12T15:35:19.909Z,71.55
2022-10-12T15:37:48.594Z,74.68
2022-10-12T15:40:16.902Z,78.25
2022-10-12T15:42:46.305Z,80.50
2022-10-12T15:45:20.349Z,81.14
2022-10-12T15:47:48.350Z,81.80
2022-10-12T15:50:16.792Z,83.34
2022-10-12T15:52:44.752Z,84.79
2022-10-12T15:55:17.144Z,86.96
2022-10-12T15:57:46.546Z,88.08
2022-10-12T16:00:15.372Z,89.58
2022-10-12T16:02:43.385Z,89.80
2022-10-12T16:05:19.741Z,90.90
2022-10-12T16:07:47.739Z,91.23
2022-10-12T16:10:15.945Z,90.77
2022-10-12T16:12:46.323Z,91.53
2022-10-12T16:15:14.996Z,92.44
2022-10-12T16:17:42.945Z,95.17
2022-10-12T16:20:11.636Z,96.38
2022-10-12T16:22:39.627Z,96.41
2022-10-12T16:25:08.956Z,96.80
2022-10-12T16:27:36.923Z,96.57
2022-10-12T16:30:08.691Z,97.49
2022-10-12T16:32:36.734Z,99.26
2022-10-12T16:35:05.294Z,100.00
2022-10-12T16:37:33.295Z,100.00
2022-10-12T16:40:01.895Z,100.00
2022-10-12T16:42:29.895Z,100.00
2022-10-12T16:44:58.191Z,100.00
2022-10-12T16:47:27.643Z,100.00
2022-10-12T16:49:55.812Z,100.00
2022-10-12T16:52:24.630Z,100.00
2022-10-12T16:54:52.619Z,100.00
2022-10-12T16:57:20.621Z,100.00
2022-10-12T16:59:48.829Z,100.00
2022-10-12T17:02:17.399Z,100.00
2022-10-12T17:04:47.340Z,100.00
2022-10-12T17:07:15.392Z,100.00
2022-10-12T17:09:43.428Z,100.00
2022-10-12T17:12:11.616Z,100.00
2022-10-12T17:14:39.550Z,100.00
2022-10-12T17:17:07.495Z,100.00
2022-10-12T17:19:37.314Z,100.00
2022-10-12T17:22:06.836Z,100.00
2022-10-12T17:24:35.796Z,100.00
2022-10-12T17:27:03.919Z,100.00
2022-10-12T17:29:32.654Z,100.00
2022-10-12T17:32:00.648Z,100.00
2022-10-12T17:34:29.504Z,100.00
2022-10-12T17:36:58.209Z,100.00
2022-10-12T17:39:28.072Z,100.00
2022-10-12T17:41:56.022Z,100.00
2022-10-12T17:44:24.061Z,100.00
2022-10-12T17:46:52.085Z,100.00
2022-10-12T17:49:24.504Z,100.00
2022-10-12T17:51:53.012Z,100.00
2022-10-12T17:54:22.598Z,100.00
2022-10-12T17:56:52.033Z,100.00
2022-10-12T17:59:21.332Z,100.00
2022-10-12T18:01:49.505Z,100.00
2022-10-12T18:04:17.498Z,100.00
2022-10-12T18:06:45.851Z,100.00
2022-10-12T18:09:13.830Z,100.00
2022-10-12T18:11:41.803Z,100.00
2022-10-12T18:14:11.185Z,100.00
2022-10-12T18:16:39.183Z,100.00
2022-10-12T18:19:07.672Z,100.00
2022-10-12T18:21:35.722Z,100.00
2022-10-12T18:24:04.659Z,100.00
2022-10-12T18:26:33.232Z,100.00
2022-10-12T18:29:01.765Z,100.00
2022-10-12T18:31:31.176Z,100.00
2022-10-12T18:33:59.259Z,100.00
2022-10-12T18:36:27.356Z,100.00
2022-10-12T18:38:55.312Z,100.00
2022-10-12T18:41:25.694Z,100.00
2022-10-12T18:43:57.694Z,100.00
2022-10-12T18:46:26.081Z,100.00
2022-10-12T18:48:55.992Z,100.00
2022-10-12T18:51:25.444Z,100.00
2022-10-12T18:53:53.447Z,100.00
2022-10-12T18:56:21.407Z,100.00
2022-10-12T18:58:49.405Z,100.00
2022-10-12T19:01:18.662Z,100.00
2022-10-12T19:03:46.768Z,100.00
2022-10-12T19:06:17.859Z,100.00
2022-10-12T19:08:45.866Z,100.00
2022-10-12T19:11:13.990Z,100.00
2022-10-12T19:13:41.979Z,100.00
2022-10-12T19:16:11.294Z,100.00
2022-10-12T19:18:39.366Z,100.00
2022-10-12T19:21:10.125Z,100.00
2022-10-12T19:23:39.574Z,100.00
2022-10-12T19:26:08.439Z,100.00
2022-10-12T19:28:36.545Z,100.00
2022-10-12T19:31:08.340Z,100.00
2022-10-12T19:33:36.339Z,100.00
2022-10-12T19:36:04.365Z,100.00
2022-10-12T19:38:32.351Z,100.00
2022-10-12T19:41:01.726Z,100.00
2022-10-12T19:43:29.797Z,100.00
2022-10-12T19:45:57.841Z,100.00
2022-10-12T19:48:25.813Z,100.00
2022-10-12T19:50:59.192Z,100.00
2022-10-12T19:53:27.246Z,100.00
2022-10-12T19:56:01.364Z,100.00
2022-10-12T19:58:29.357Z,100.00
2022-10-12T20:01:01.832Z,100.00
2022-10-12T20:03:29.845Z,100.00
2022-10-12T20:05:57.819Z,100.00
2022-10-12T20:08:25.797Z,100.00
2022-10-12T20:10:53.947Z,100.00
2022-10-12T20:13:23.288Z,100.00
2022-10-12T20:15:53.257Z,100.00
2022-10-12T20:18:21.229Z,100.00
2022-10-12T20:20:49.179Z,100.00
2022-10-12T20:23:17.200Z,100.00
2022-10-12T20:25:45.377Z,100.00
2022-10-12T20:28:13.507Z,100.00
2022-10-12T20:30:42.907Z,100.00
2022-10-12T20:33:10.942Z,100.00
2022-10-12T20:35:38.895Z,100.00
2022-10-12T20:38:06.858Z,100.00
2022-10-12T20:40:34.838Z,100.00
2022-10-12T20:43:02.809Z,100.00
2022-10-12T20:45:30.811Z,100.00
2022-10-12T20:48:00.181Z,100.00
2022-10-12T20:50:28.349Z,100.00
2022-10-12T20:52:56.326Z,100.00
2022-10-12T20:55:24.289Z,100.00
2022-10-12T20:57:52.228Z,100.00
2022-10-12T21:00:20.370Z,100.00
2022-10-12T21:02:48.323Z,100.00
2022-10-12T21:05:17.717Z,100.00
2022-10-12T21:07:45.744Z,100.00
2022-10-12T21:10:13.712Z,100.00
2022-10-12T21:12:41.681Z,100.00
2022-10-12T21:15:10.825Z,100.00
2022-10-12T21:17:38.799Z,100.00
2022-10-12T21:20:07.733Z,100.00
2022-10-12T21:22:37.053Z,100.00
2022-10-12T21:25:05.563Z,100.00
2022-10-12T21:27:33.542Z,100.00
2022-10-12T21:30:01.497Z,100.00
2022-10-12T21:32:29.441Z,100.00
2022-10-12T21:34:57.392Z,100.00
2022-10-12T21:37:25.461Z,100.00
2022-10-12T21:39:55.809Z,100.00
2022-10-12T21:42:23.790Z,100.00
2022-10-12T21:44:51.743Z,100.00
2022-10-12T21:47:19.675Z,100.00
2022-10-12T21:49:47.646Z,100.00
2022-10-12T21:52:15.726Z,100.00
2022-10-12T21:54:43.832Z,100.00
2022-10-12T21:57:13.151Z,100.00
2022-10-12T21:59:41.115Z,100.00
2022-10-12T22:02:09.150Z,100.00
2022-10-12T22:04:37.124Z,100.00
2022-10-12T22:07:05.056Z,100.00
2022-10-12T22:09:33.004Z,100.00
2022-10-12T22:12:00.971Z,100.00
2022-10-12T22:14:30.342Z,100.00
2022-10-12T22:16:58.278Z,100.00
2022-10-12T22:19:26.258Z,100.00
2022-10-12T22:21:54.607Z,100.00
2022-10-12T22:24:22.651Z,100.00
2022-10-12T22:26:50.699Z,100.00
2022-10-12T22:29:18.667Z,100.00
2022-10-12T22:31:48.023Z,100.00
2022-10-12T22:34:16.007Z,100.00
2022-10-12T22:36:44.264Z,100.00
2022-10-12T22:39:12.237Z,100.00
2022-10-12T22:41:40.224Z,100.00
2022-10-12T22:44:08.183Z,100.00
2022-10-12T22:46:36.123Z,100.00
2022-10-12T22:49:05.458Z,100.00
2022-10-12T22:51:34.334Z,100.00
2022-10-12T22:54:02.429Z,100.00
2022-10-12T22:56:30.404Z,100.00
2022-10-12T22:58:58.975Z,100.00
2022-10-12T23:01:27.042Z,100.00
2022-10-12T23:03:55.086Z,100.00
2022-10-12T23:06:24.488Z,100.00
2022-10-12T23:08:52.513Z,100.00
2022-10-12T23:11:21.443Z,100.00
2022-10-12T23:13:49.418Z,100.00
2022-10-12T23:16:18.899Z,100.00
2022-10-12T23:18:46.954Z,100.00
2022-10-12T23:21:15.947Z,100.00
2022-10-12T23:23:45.634Z,100.00
2022-10-12T23:26:14.781Z,100.00
2022-10-12T23:28:42.727Z,100.00
2022-10-12T23:31:15.232Z,100.00
2022-10-12T23:33:43.271Z,100.00
2022-10-12T23:36:12.377Z,100.00
2022-10-12T23:38:40.746Z,100.00
2022-10-12T23:41:10.199Z,100.00
2022-10-12T23:43:38.182Z,100.00
2022-10-12T23:46:06.550Z,100.00
2022-10-12T23:48:35.341Z,100.00
2022-10-12T23:51:03.318Z,100.00
2022-10-12T23:53:31.627Z,100.00
2022-10-12T23:55:59.604Z,100.00
2022-10-12T23:58:28.954Z,100.00
